Paisley, Canada
Current Conditions -  °F | °C
As of 4:00 PM on Monday 24 Nov 2014 (Local Time) from CYVV Reporting Station
Rain Showers Rain Showers  
Wind Chill: 52°   Ceiling: 1000
Heat Index: 52°   Visibility: 3mi
Dew Point: 50°   Wind: 22mph
Humidity: 94%   Direction: 210°SSW
Pressure: 29.06"   Gusts: 33mph
Location:  44.3°N, 81.28°W
Report Text: CYVV 242100Z 21019G29KT 3SM -SHRA BR OVC010 11/10 A2906 RMK SF8 SLP842 DENSITY ALT 1400FT
Loading
Personal Weather Stations






























Interactive Weather Map New forecast layout! Learn more

10-Day Weather Forecast

Advertisements
Track Severe Weather on mobile